createdAt,value
2019-04-04T00:01:47.822Z,4.30
2019-04-04T00:04:15.519Z,4.50
2019-04-04T00:06:43.933Z,4.43
2019-04-04T00:09:12.606Z,5.37
2019-04-04T00:11:40.691Z,4.67
2019-04-04T00:14:09.065Z,4.60
2019-04-04T00:16:37.151Z,4.77
2019-04-04T00:19:05.917Z,4.77
2019-04-04T00:21:34.682Z,4.77
2019-04-04T00:24:03.094Z,5.00
2019-04-04T00:26:31.513Z,5.13
2019-04-04T00:29:01.354Z,5.20
2019-04-04T00:31:29.730Z,5.60
2019-04-04T00:33:58.136Z,5.30
2019-04-04T00:36:26.556Z,5.57
2019-04-04T00:38:54.962Z,5.67
2019-04-04T00:41:23.396Z,5.53
2019-04-04T00:43:52.385Z,5.13
2019-04-04T00:46:20.665Z,5.57
2019-04-04T00:48:48.747Z,5.33
2019-04-04T00:51:17.167Z,5.77
2019-04-04T00:53:45.577Z,6.27
2019-04-04T00:56:13.986Z,5.90
2019-04-04T00:58:42.062Z,6.00
2019-04-04T01:01:10.668Z,5.63
2019-04-04T01:03:39.106Z,5.67
2019-04-04T01:06:07.496Z,5.47
2019-04-04T01:08:38.032Z,5.70
2019-04-04T01:11:06.040Z,6.70
2019-04-04T01:13:34.121Z,6.17
2019-04-04T01:16:03.333Z,5.90
2019-04-04T01:18:31.826Z,6.93
2019-04-04T01:21:00.145Z,6.63
2019-04-04T01:23:28.560Z,6.33
2019-04-04T01:25:56.646Z,7.27
2019-04-04T01:28:25.040Z,7.07
2019-04-04T01:30:53.452Z,6.97
2019-04-04T01:33:21.855Z,6.70
2019-04-04T01:35:53.674Z,7.40
2019-04-04T01:38:20.426Z,7.93
2019-04-04T01:40:48.879Z,8.17
2019-04-04T01:43:16.967Z,8.43
2019-04-04T01:45:45.120Z,8.17
2019-04-04T01:48:13.220Z,8.43
2019-04-04T01:50:41.300Z,8.43
2019-04-04T01:53:09.401Z,8.07
2019-04-04T01:55:37.468Z,9.07
2019-04-04T01:58:05.561Z,8.67
2019-04-04T02:00:33.969Z,8.67
2019-04-04T02:03:02.392Z,8.97
2019-04-04T02:05:30.814Z,8.80
2019-04-04T02:08:00.816Z,8.87
2019-04-04T02:10:29.038Z,8.23
2019-04-04T02:12:57.452Z,8.23
2019-04-04T02:15:26.177Z,8.97
2019-04-04T02:17:54.597Z,9.50
2019-04-04T02:20:23.008Z,9.53
2019-04-04T02:22:51.099Z,8.93
2019-04-04T02:25:19.175Z,8.80
2019-04-04T02:27:47.500Z,9.23
2019-04-04T02:30:16.439Z,8.97
2019-04-04T02:32:45.173Z,8.93
2019-04-04T02:35:13.329Z,9.17
2019-04-04T02:37:41.421Z,9.37
2019-04-04T02:40:10.040Z,9.67
2019-04-04T02:42:38.521Z,9.30
2019-04-04T02:45:06.915Z,10.00
2019-04-04T02:47:35.053Z,9.47
2019-04-04T02:50:04.203Z,10.07
2019-04-04T02:52:32.626Z,10.67
2019-04-04T02:55:00.711Z,10.60
2019-04-04T02:57:28.808Z,10.60
2019-04-04T02:59:56.896Z,10.43
2019-04-04T03:02:25.000Z,11.07
2019-04-04T03:04:53.102Z,10.50
2019-04-04T03:07:21.257Z,11.53
2019-04-04T03:09:49.346Z,12.17
2019-04-04T03:12:17.450Z,11.80
2019-04-04T03:14:45.542Z,12.53
2019-04-04T03:17:13.638Z,13.23
2019-04-04T03:19:43.570Z,12.97
2019-04-04T03:22:11.544Z,12.10
2019-04-04T03:24:44.479Z,13.63
2019-04-04T03:27:09.458Z,12.87
2019-04-04T03:29:38.364Z,11.80
2019-04-04T03:32:13.774Z,12.43
2019-04-04T03:34:37.095Z,13.50
2019-04-04T03:37:06.577Z,13.30
2019-04-04T03:39:35.670Z,13.00
2019-04-04T03:42:06.976Z,13.17
2019-04-04T03:44:34.168Z,14.17
2019-04-04T03:47:02.266Z,14.03
2019-04-04T03:49:30.349Z,13.93
2019-04-04T03:51:58.442Z,15.00
2019-04-04T03:54:26.813Z,13.93
2019-04-04T03:56:55.233Z,13.83
2019-04-04T03:59:23.925Z,14.27
2019-04-04T04:01:52.392Z,14.93
2019-04-04T04:04:20.870Z,14.73
2019-04-04T04:06:49.291Z,15.60
2019-04-04T04:09:17.403Z,14.93
2019-04-04T04:11:46.097Z,15.00
2019-04-04T04:14:14.547Z,14.70
2019-04-04T04:16:43.021Z,14.70
2019-04-04T04:19:11.466Z,15.73
2019-04-04T04:21:42.757Z,14.20
2019-04-04T04:24:10.051Z,15.07
2019-04-04T04:26:41.966Z,15.43
2019-04-04T04:29:08.888Z,14.43
2019-04-04T04:31:37.629Z,15.67
2019-04-04T04:34:06.088Z,14.17
2019-04-04T04:36:34.562Z,13.93
2019-04-04T04:39:03.065Z,13.90
2019-04-04T04:41:31.481Z,15.97
2019-04-04T04:43:59.908Z,18.47
2019-04-04T04:46:28.345Z,19.90
2019-04-04T04:48:56.761Z,20.77
2019-04-04T04:51:25.249Z,19.57
2019-04-04T04:53:53.682Z,19.03
2019-04-04T04:56:22.095Z,19.77
2019-04-04T04:58:50.520Z,20.90
2019-04-04T05:01:19.167Z,18.63
2019-04-04T05:03:50.561Z,18.77
2019-04-04T05:06:17.893Z,18.03
2019-04-04T05:08:46.322Z,17.40
2019-04-04T05:11:14.811Z,17.83
2019-04-04T05:13:44.908Z,17.27
2019-04-04T05:16:13.317Z,19.73
2019-04-04T05:18:41.991Z,18.83
2019-04-04T05:21:10.506Z,19.97
2019-04-04T05:23:39.331Z,21.43
2019-04-04T05:26:09.649Z,21.00
2019-04-04T05:28:37.888Z,20.13
2019-04-04T05:31:06.388Z,19.77
2019-04-04T05:33:34.810Z,19.77
2019-04-04T05:36:05.245Z,19.73
2019-04-04T05:38:33.691Z,19.10
2019-04-04T05:41:02.105Z,21.20
2019-04-04T05:43:30.551Z,20.97
2019-04-04T05:45:59.039Z,20.53
2019-04-04T05:48:29.069Z,20.47
2019-04-04T05:50:57.309Z,19.77
2019-04-04T05:53:25.758Z,18.83
2019-04-04T05:55:54.336Z,20.60
2019-04-04T05:58:22.801Z,16.93
2019-04-04T06:00:51.321Z,17.00
2019-04-04T06:03:19.769Z,17.50
2019-04-04T06:05:48.201Z,17.93
2019-04-04T06:08:16.300Z,16.33
2019-04-04T06:10:44.718Z,17.83
2019-04-04T06:13:13.141Z,16.13
2019-04-04T06:15:41.565Z,16.33
2019-04-04T06:18:11.860Z,17.60
2019-04-04T06:20:39.801Z,16.80
2019-04-04T06:23:07.901Z,16.10
2019-04-04T06:25:36.076Z,15.60
2019-04-04T06:28:04.224Z,16.07
2019-04-04T06:30:42.491Z,16.93
2019-04-04T06:33:04.842Z,14.77
2019-04-04T06:35:34.137Z,14.00
2019-04-04T06:38:02.229Z,13.80
2019-04-04T06:40:30.923Z,13.53
2019-04-04T06:42:59.094Z,13.20
2019-04-04T06:45:29.702Z,11.97
2019-04-04T06:47:58.258Z,12.37
2019-04-04T06:50:27.912Z,11.97
2019-04-04T06:52:56.759Z,11.83
2019-04-04T06:55:28.458Z,12.80
2019-04-04T06:57:54.740Z,11.93
2019-04-04T07:00:22.854Z,11.23
2019-04-04T07:02:50.943Z,12.27
2019-04-04T07:05:19.040Z,10.97
2019-04-04T07:07:47.129Z,10.50
2019-04-04T07:10:15.224Z,10.93
2019-04-04T07:12:43.328Z,11.57
2019-04-04T07:15:14.292Z,11.33
2019-04-04T07:17:41.311Z,11.93
2019-04-04T07:20:09.506Z,12.13
2019-04-04T07:22:37.605Z,12.33
2019-04-04T07:25:06.886Z,10.67
2019-04-04T07:27:35.045Z,11.50
2019-04-04T07:30:05.405Z,12.87
2019-04-04T07:32:33.506Z,12.87
2019-04-04T07:35:01.948Z,13.33
2019-04-04T07:37:30.041Z,13.00
2019-04-04T07:39:58.453Z,12.97
2019-04-04T07:42:26.889Z,13.13
2019-04-04T07:44:55.157Z,13.03
2019-04-04T07:47:23.685Z,12.47
2019-04-04T07:49:53.164Z,10.93
2019-04-04T07:52:22.018Z,11.37
2019-04-04T07:54:50.108Z,12.60
2019-04-04T07:57:19.750Z,11.53
2019-04-04T07:59:48.016Z,9.60
2019-04-04T08:02:35.478Z,10.17
2019-04-04T08:05:05.841Z,15.43
2019-04-04T08:07:34.271Z,12.07
2019-04-04T08:10:03.059Z,10.80
2019-04-04T08:12:31.492Z,13.27
2019-04-04T08:14:59.974Z,11.40
2019-04-04T08:17:28.411Z,14.60
2019-04-04T08:19:59.896Z,13.30
2019-04-04T08:22:26.977Z,11.63
2019-04-04T08:24:55.393Z,11.30
2019-04-04T08:27:23.822Z,12.33
2019-04-04T08:29:52.262Z,13.37
2019-04-04T08:32:20.773Z,11.00
2019-04-04T08:34:48.858Z,9.93
2019-04-04T08:37:16.957Z,11.03
2019-04-04T08:39:45.377Z,10.87
2019-04-04T08:42:13.812Z,9.80
2019-04-04T08:44:42.429Z,10.17
2019-04-04T08:47:11.146Z,9.50
2019-04-04T08:49:39.606Z,11.57
2019-04-04T08:52:16.645Z,12.20
2019-04-04T08:54:38.265Z,10.60
2019-04-04T08:57:06.712Z,11.37
2019-04-04T08:59:35.398Z,12.17
2019-04-04T09:02:04.379Z,10.13
2019-04-04T09:04:32.844Z,11.77
2019-04-04T09:07:01.319Z,9.93
2019-04-04T09:09:29.822Z,11.50
2019-04-04T09:11:58.303Z,10.20
2019-04-04T09:14:26.717Z,8.90
2019-04-04T09:16:55.150Z,9.67
2019-04-04T09:19:23.569Z,10.23
2019-04-04T09:21:51.989Z,9.60
2019-04-04T09:24:20.105Z,9.10
2019-04-04T09:27:07.801Z,8.53
2019-04-04T09:29:36.218Z,9.07
2019-04-04T09:32:04.335Z,8.53
2019-04-04T09:34:32.472Z,7.53
2019-04-04T09:37:00.570Z,8.00
2019-04-04T09:39:28.990Z,8.67
2019-04-04T09:41:57.429Z,8.30
2019-04-04T09:44:25.838Z,8.03
2019-04-04T09:47:04.945Z,7.47
2019-04-04T09:49:24.417Z,5.07
2019-04-04T09:51:52.874Z,3.50
2019-04-04T09:54:21.012Z,3.63
2019-04-04T09:56:49.133Z,2.67
2019-04-04T09:59:17.229Z,2.70
2019-04-04T10:02:04.982Z,2.50
2019-04-04T10:04:33.070Z,2.50
2019-04-04T10:07:01.485Z,2.60
2019-04-04T10:09:29.901Z,2.80
2019-04-04T10:11:58.313Z,2.13
2019-04-04T10:14:26.990Z,2.30
2019-04-04T10:16:55.080Z,2.20
2019-04-04T10:19:23.174Z,2.30
2019-04-04T10:21:51.523Z,2.50
2019-04-04T10:24:19.617Z,2.97
2019-04-04T10:26:47.697Z,3.50
2019-04-04T10:29:15.789Z,3.40
2019-04-04T10:31:43.951Z,3.53
2019-04-04T10:34:12.119Z,4.00
2019-04-04T10:36:40.203Z,4.57
2019-04-04T10:39:09.836Z,4.10
2019-04-04T10:41:37.916Z,4.10
2019-04-04T10:44:06.009Z,4.30
2019-04-04T10:46:34.333Z,5.40
2019-04-04T10:49:02.425Z,5.90
2019-04-04T10:51:30.513Z,5.80
2019-04-04T10:53:58.605Z,4.60
2019-04-04T10:56:26.685Z,5.03
2019-04-04T10:58:54.789Z,4.10
2019-04-04T11:01:22.880Z,4.30
2019-04-04T11:03:50.977Z,2.83
2019-04-04T11:06:19.061Z,3.60
2019-04-04T11:08:47.160Z,4.20
2019-04-04T11:11:15.573Z,2.83
2019-04-04T11:13:43.998Z,2.40
2019-04-04T11:16:12.418Z,2.77
2019-04-04T11:18:40.836Z,2.77
2019-04-04T11:21:08.920Z,2.30
2019-04-04T11:23:37.009Z,2.17
2019-04-04T11:26:05.088Z,2.07
2019-04-04T11:28:33.189Z,1.97
2019-04-04T11:31:01.264Z,2.07
2019-04-04T11:33:29.360Z,1.80
2019-04-04T11:35:57.444Z,1.40
2019-04-04T11:38:25.541Z,1.60
2019-04-04T11:40:53.637Z,1.93
2019-04-04T11:43:22.241Z,2.10
2019-04-04T11:45:50.813Z,2.20
2019-04-04T11:48:19.184Z,2.03
2019-04-04T11:50:47.245Z,2.03
2019-04-04T11:53:15.429Z,2.10
2019-04-04T11:55:43.505Z,1.93
2019-04-04T11:58:11.601Z,1.40
2019-04-04T12:00:41.963Z,1.50
2019-04-04T12:03:10.033Z,1.70
2019-04-04T12:05:38.136Z,1.27
2019-04-04T12:08:06.221Z,1.10
2019-04-04T12:10:34.315Z,0.90
2019-04-04T12:13:02.733Z,1.10
2019-04-04T12:15:30.834Z,0.90
2019-04-04T12:17:58.912Z,0.90
2019-04-04T12:20:27.002Z,0.80
2019-04-04T12:22:55.082Z,1.00
2019-04-04T12:25:23.501Z,1.10
2019-04-04T12:27:51.587Z,0.90
2019-04-04T12:30:20.882Z,1.20
2019-04-04T12:32:49.693Z,1.07
2019-04-04T12:35:17.803Z,0.87
2019-04-04T12:37:46.214Z,1.40
2019-04-04T12:40:20.522Z,1.27
2019-04-04T12:42:44.453Z,1.50
2019-04-04T12:45:13.021Z,1.50
2019-04-04T12:47:41.106Z,1.60
2019-04-04T12:50:09.778Z,1.40
2019-04-04T12:52:38.530Z,1.47
2019-04-04T12:55:07.434Z,1.20
2019-04-04T12:57:35.624Z,1.60
2019-04-04T13:00:05.965Z,1.40
2019-04-04T13:02:34.405Z,1.67
2019-04-04T13:05:02.833Z,1.60
2019-04-04T13:07:31.245Z,1.60
2019-04-04T13:10:10.838Z,1.60
2019-04-04T13:12:29.796Z,1.63
2019-04-04T13:14:57.895Z,1.77
2019-04-04T13:17:25.972Z,1.60
2019-04-04T13:19:54.073Z,1.27
2019-04-04T13:22:22.471Z,1.80
2019-04-04T13:24:50.893Z,1.37
2019-04-04T13:27:18.973Z,1.40
2019-04-04T13:29:47.401Z,1.10
2019-04-04T13:32:15.493Z,1.40
2019-04-04T13:34:43.919Z,1.27
2019-04-04T13:37:12.338Z,1.30
2019-04-04T13:39:40.437Z,1.40
2019-04-04T13:42:08.792Z,1.20
2019-04-04T13:44:36.881Z,0.80
2019-04-04T13:47:04.960Z,1.03
2019-04-04T13:49:33.048Z,1.30
2019-04-04T13:52:01.128Z,1.20
2019-04-04T13:54:29.235Z,1.10
2019-04-04T13:56:57.646Z,0.73
2019-04-04T13:59:26.075Z,0.90
2019-04-04T14:01:54.488Z,0.70
2019-04-04T14:04:24.734Z,0.70
2019-04-04T14:06:53.355Z,0.80
2019-04-04T14:09:21.518Z,0.90
2019-04-04T14:11:49.605Z,0.90
2019-04-04T14:14:17.701Z,0.80
2019-04-04T14:16:46.104Z,1.30
2019-04-04T14:19:14.529Z,1.37
2019-04-04T14:21:43.245Z,1.20
2019-04-04T14:24:13.891Z,1.10
2019-04-04T14:26:41.473Z,0.90
2019-04-04T14:29:09.624Z,0.70
2019-04-04T14:31:37.994Z,0.70
2019-04-04T14:34:06.082Z,0.73
2019-04-04T14:36:34.168Z,1.00
2019-04-04T14:39:02.581Z,0.90
2019-04-04T14:41:31.009Z,0.70
2019-04-04T14:44:00.668Z,0.50
2019-04-04T14:46:28.996Z,0.63
2019-04-04T14:48:57.080Z,0.80
2019-04-04T14:51:25.441Z,0.70
2019-04-04T14:53:53.533Z,0.70
2019-04-04T14:56:21.620Z,0.80
2019-04-04T14:58:49.705Z,0.70
2019-04-04T15:01:18.137Z,0.60
2019-04-04T15:03:46.225Z,0.50
2019-04-04T15:06:14.316Z,0.73
2019-04-04T15:09:01.743Z,0.60
2019-04-04T15:11:30.177Z,0.40
2019-04-04T15:13:58.589Z,0.60
2019-04-04T15:16:26.676Z,0.60
2019-04-04T15:18:54.764Z,0.83
2019-04-04T15:21:22.858Z,0.70
2019-04-04T15:23:50.942Z,0.90
2019-04-04T15:26:19.052Z,0.80
2019-04-04T15:28:47.412Z,0.63
2019-04-04T15:31:35.193Z,0.70
2019-04-04T15:34:03.341Z,0.80
2019-04-04T15:36:31.432Z,0.80
2019-04-04T15:38:59.544Z,0.60
2019-04-04T15:41:36.932Z,0.53
2019-04-04T15:43:57.445Z,0.80
2019-04-04T15:46:25.537Z,0.70
2019-04-04T15:48:53.866Z,0.60
2019-04-04T15:51:22.573Z,0.60
2019-04-04T15:53:50.973Z,0.70
2019-04-04T15:56:19.396Z,0.70
2019-04-04T15:58:47.495Z,0.50
2019-04-04T16:01:15.922Z,0.80
2019-04-04T16:03:44.264Z,0.80
2019-04-04T16:06:12.369Z,0.63
2019-04-04T16:09:00.120Z,0.60
2019-04-04T16:11:28.241Z,0.53
2019-04-04T16:13:56.325Z,0.63
2019-04-04T16:16:25.331Z,0.60
2019-04-04T16:18:53.673Z,0.60
2019-04-04T16:21:22.450Z,0.63
2019-04-04T16:23:50.533Z,0.63
2019-04-04T16:26:19.324Z,0.60
2019-04-04T16:28:47.739Z,0.60
2019-04-04T16:31:16.209Z,0.60
2019-04-04T16:33:44.623Z,0.53
2019-04-04T16:36:12.712Z,0.70
2019-04-04T16:38:41.122Z,0.43
2019-04-04T16:41:09.532Z,0.70
2019-04-04T16:43:37.958Z,0.90
2019-04-04T16:46:06.107Z,0.90
2019-04-04T16:48:34.529Z,0.90
2019-04-04T16:51:02.618Z,0.90
2019-04-04T16:53:31.036Z,1.13
2019-04-04T16:55:59.458Z,0.70
2019-04-04T16:58:27.549Z,0.80
2019-04-04T17:00:55.627Z,0.70
2019-04-04T17:03:24.051Z,0.80
2019-04-04T17:05:52.466Z,1.10
2019-04-04T17:08:20.889Z,1.00
2019-04-04T17:10:49.318Z,1.20
2019-04-04T17:13:17.439Z,1.20
2019-04-04T17:15:45.847Z,1.20
2019-04-04T17:18:13.953Z,1.30
2019-04-04T17:20:42.386Z,1.20
2019-04-04T17:23:10.816Z,1.20
2019-04-04T17:25:39.229Z,1.07
2019-04-04T17:28:07.785Z,1.10
2019-04-04T17:30:36.247Z,1.10
2019-04-04T17:33:04.682Z,1.00
2019-04-04T17:35:33.104Z,0.97
2019-04-04T17:38:20.876Z,1.30
2019-04-04T17:40:49.290Z,1.00
2019-04-04T17:43:17.713Z,1.20
2019-04-04T17:45:46.180Z,1.40
2019-04-04T17:48:14.305Z,1.20
2019-04-04T17:50:42.637Z,1.50
2019-04-04T17:53:30.093Z,1.30
2019-04-04T17:55:58.646Z,1.43
2019-04-04T17:58:27.469Z,1.37
2019-04-04T18:00:55.912Z,1.70
2019-04-04T18:03:24.333Z,1.50
2019-04-04T18:05:52.741Z,1.93
2019-04-04T18:08:20.842Z,1.80
2019-04-04T18:10:48.955Z,2.00
2019-04-04T18:13:17.044Z,1.80
2019-04-04T18:15:45.140Z,1.60
2019-04-04T18:18:13.229Z,1.73
2019-04-04T18:20:41.616Z,2.97
2019-04-04T18:23:10.045Z,1.60
2019-04-04T18:25:38.473Z,1.50
2019-04-04T18:28:06.886Z,1.63
2019-04-04T18:30:34.967Z,1.60
2019-04-04T18:33:03.620Z,1.80
2019-04-04T18:35:31.749Z,1.80
2019-04-04T18:37:59.866Z,2.03
2019-04-04T18:40:27.991Z,1.63
2019-04-04T18:42:56.873Z,1.87
2019-04-04T18:45:24.968Z,1.60
2019-04-04T18:47:53.116Z,1.90
2019-04-04T18:50:21.213Z,1.90
2019-04-04T18:52:49.293Z,1.80
2019-04-04T18:55:19.903Z,1.90
2019-04-04T18:57:47.221Z,1.83
2019-04-04T19:00:15.687Z,1.83
2019-04-04T19:02:44.107Z,1.83
2019-04-04T19:05:12.742Z,1.70
2019-04-04T19:07:41.153Z,1.87
2019-04-04T19:10:10.425Z,1.80
2019-04-04T19:12:38.588Z,1.60
2019-04-04T19:15:07.836Z,1.73
2019-04-04T19:17:36.869Z,1.80
2019-04-04T19:20:09.602Z,1.63
2019-04-04T19:22:36.715Z,1.70
2019-04-04T19:25:05.773Z,1.80
2019-04-04T19:27:34.189Z,2.03
2019-04-04T19:30:02.817Z,1.97
2019-04-04T19:32:30.901Z,1.90
2019-04-04T19:34:58.984Z,1.73
2019-04-04T19:37:27.066Z,2.20
2019-04-04T19:39:55.154Z,2.03
2019-04-04T19:42:23.544Z,1.80
2019-04-04T19:44:53.494Z,2.13
2019-04-04T19:47:21.449Z,2.00
2019-04-04T19:49:49.563Z,2.00
2019-04-04T19:52:17.697Z,1.90
2019-04-04T19:54:45.783Z,3.10
2019-04-04T19:57:16.627Z,3.63
2019-04-04T19:59:43.693Z,2.57
2019-04-04T20:02:11.778Z,2.63
2019-04-04T20:04:39.869Z,2.40
2019-04-04T20:07:07.957Z,2.47
2019-04-04T20:09:36.042Z,2.53
2019-04-04T20:12:04.133Z,2.20
2019-04-04T20:14:32.570Z,2.37
2019-04-04T20:17:20.010Z,2.60
2019-04-04T20:19:48.094Z,2.70
2019-04-04T20:22:16.189Z,2.60
2019-04-04T20:24:44.269Z,2.70
2019-04-04T20:27:12.368Z,2.80
2019-04-04T20:29:40.449Z,3.07
2019-04-04T20:32:08.551Z,3.87
2019-04-04T20:34:36.909Z,3.83
2019-04-04T20:37:05.001Z,3.50
2019-04-04T20:39:33.417Z,3.33
2019-04-04T20:42:01.849Z,3.53
2019-04-04T20:44:30.279Z,3.47
2019-04-04T20:46:58.715Z,3.77
2019-04-04T20:49:26.797Z,3.97
2019-04-04T20:51:54.989Z,3.90
2019-04-04T20:54:23.520Z,4.17
2019-04-04T20:56:51.957Z,4.67
2019-04-04T20:59:20.042Z,4.53
2019-04-04T21:01:48.475Z,4.53
2019-04-04T21:04:16.548Z,4.27
2019-04-04T21:06:44.973Z,5.20
2019-04-04T21:09:13.062Z,4.10
2019-04-04T21:11:41.153Z,4.60
2019-04-04T21:14:09.245Z,4.87
2019-04-04T21:16:37.341Z,4.63
2019-04-04T21:19:05.424Z,4.80
2019-04-04T21:21:33.578Z,5.20
2019-04-04T21:24:01.663Z,5.17
2019-04-04T21:26:29.772Z,4.67
2019-04-04T21:28:57.857Z,4.93
2019-04-04T21:31:25.954Z,4.80
2019-04-04T21:33:54.037Z,4.87
2019-04-04T21:36:22.129Z,4.50
2019-04-04T21:38:50.209Z,5.20
2019-04-04T21:41:18.310Z,4.83
2019-04-04T21:43:46.710Z,5.93
2019-04-04T21:46:14.809Z,5.63
2019-04-04T21:48:43.162Z,5.70
2019-04-04T21:51:11.263Z,5.30
2019-04-04T21:53:39.353Z,5.13
2019-04-04T21:56:07.436Z,5.50
2019-04-04T21:58:35.533Z,4.70
2019-04-04T22:01:04.130Z,5.33
2019-04-04T22:03:32.558Z,5.17
2019-04-04T22:06:00.728Z,6.07
2019-04-04T22:08:28.814Z,5.57
2019-04-04T22:10:57.227Z,5.33
2019-04-04T22:13:25.322Z,5.83
2019-04-04T22:15:53.733Z,5.47
2019-04-04T22:18:22.162Z,5.80
2019-04-04T22:20:50.947Z,5.87
2019-04-04T22:23:19.045Z,5.83
2019-04-04T22:25:47.131Z,6.30
2019-04-04T22:28:15.224Z,5.93
2019-04-04T22:30:44.085Z,5.70
2019-04-04T22:33:12.524Z,6.00
2019-04-04T22:35:41.220Z,6.20
2019-04-04T22:38:09.338Z,5.80
2019-04-04T22:40:37.421Z,6.57
2019-04-04T22:43:05.529Z,6.67
2019-04-04T22:45:33.633Z,7.17
2019-04-04T22:48:02.010Z,7.40
2019-04-04T22:50:30.097Z,6.27
2019-04-04T22:52:58.537Z,7.10
2019-04-04T22:55:26.946Z,6.50
2019-04-04T22:57:55.048Z,6.57
2019-04-04T23:00:23.205Z,6.20
2019-04-04T23:02:51.645Z,5.83
2019-04-04T23:05:20.061Z,5.93
2019-04-04T23:07:48.158Z,6.00
2019-04-04T23:10:16.241Z,6.20
2019-04-04T23:12:44.354Z,6.33
2019-04-04T23:15:12.503Z,6.03
2019-04-04T23:17:40.601Z,6.67
2019-04-04T23:20:09.603Z,5.73
2019-04-04T23:22:38.013Z,5.73
2019-04-04T23:25:07.872Z,5.87
2019-04-04T23:27:36.293Z,5.87
2019-04-04T23:30:06.556Z,5.90
2019-04-04T23:32:34.685Z,5.90
2019-04-04T23:35:03.475Z,6.63
2019-04-04T23:37:32.217Z,6.13
2019-04-04T23:40:00.302Z,5.80
2019-04-04T23:42:28.733Z,6.30
2019-04-04T23:45:01.168Z,6.20
2019-04-04T23:47:26.645Z,6.40
2019-04-04T23:49:54.732Z,6.30
2019-04-04T23:52:22.930Z,5.67
2019-04-04T23:54:52.186Z,6.83
2019-04-04T23:57:20.601Z,5.67
2019-04-04T23:59:49.033Z,6.00
